Time;durP1;ratioP1;P1;durP2;ratioP2;P2;SDS_P1;SDS_P2;PMS_P1;PMS_P2;Temp;Humidity;BMP_temperature;BMP_pressure;BME280_temperature;BME280_humidity;BME280_pressure;Samples;Min_cycle;Max_cycle;Signal;HPM_P1;HPM_P2
2021/06/01 00:00:35;;;;;;;10.67;9.63;;;14.10;1.00;;;;;;5041651;28;20517;-77
2021/06/01 00:03:01;;;;;;;10.60;8.70;;;14.10;1.00;;;;;;5037516;28;20464;-77
2021/06/01 00:05:27;;;;;;;12.90;9.77;;;14.10;1.00;;;;;;5043376;28;20494;-77
2021/06/01 00:07:53;;;;;;;9.90;8.60;;;14.20;1.00;;;;;;5041875;28;20459;-77
2021/06/01 00:10:19;;;;;;;10.30;8.90;;;14.20;1.00;;;;;;5044009;28;20407;-77
2021/06/01 00:12:46;;;;;;;14.00;9.77;;;14.20;1.00;;;;;;5041055;28;20831;-77
2021/06/01 00:15:12;;;;;;;12.53;10.83;;;14.20;1.00;;;;;;5038260;28;20441;-76
2021/06/01 00:17:39;;;;;;;10.83;8.90;;;14.10;1.00;;;;;;5062563;28;20999;-76
2021/06/01 00:20:09;;;;;;;10.17;9.10;;;14.10;1.00;;;;;;5044851;28;20441;-76
2021/06/01 00:22:36;;;;;;;11.73;8.90;;;14.00;1.00;;;;;;5046203;28;20459;-76
2021/06/01 00:25:02;;;;;;;10.70;8.53;;;14.00;1.00;;;;;;5044854;28;21458;-77
2021/06/01 00:27:29;;;;;;;10.40;9.30;;;14.00;1.00;;;;;;5045823;28;20461;-76
2021/06/01 00:29:55;;;;;;;9.93;8.03;;;13.90;1.00;;;;;;5044340;28;20440;-75
2021/06/01 00:32:21;;;;;;;10.70;9.10;;;13.90;1.00;;;;;;5042884;28;20470;-76
2021/06/01 00:34:49;;;;;;;10.03;8.13;;;13.90;1.00;;;;;;5040123;28;20436;-77
2021/06/01 00:37:15;;;;;;;12.33;10.00;;;13.80;1.00;;;;;;5042032;28;20569;-77
2021/06/01 00:39:41;;;;;;;9.87;8.90;;;13.80;1.00;;;;;;5046458;28;20447;-77
2021/06/01 00:42:07;;;;;;;12.33;8.70;;;13.80;1.00;;;;;;5044987;28;21303;-78
2021/06/01 00:44:33;;;;;;;9.23;8.23;;;13.70;1.00;;;;;;5045896;28;20443;-77
2021/06/01 00:47:01;;;;;;;12.17;9.37;;;13.70;1.00;;;;;;5045149;28;20519;-77
2021/06/01 00:49:27;;;;;;;11.40;9.57;;;13.70;1.00;;;;;;5056073;28;20513;-75
2021/06/01 00:51:54;;;;;;;10.80;8.87;;;13.70;1.00;;;;;;5045127;28;20456;-77
2021/06/01 00:54:20;;;;;;;12.47;9.43;;;13.70;1.00;;;;;;5041169;28;20478;-77
2021/06/01 00:56:47;;;;;;;11.83;9.67;;;13.60;1.00;;;;;;5044733;28;20514;-77
2021/06/01 00:59:14;;;;;;;10.60;9.30;;;13.60;1.00;;;;;;5044671;28;20435;-77
2021/06/01 01:01:41;;;;;;;10.83;9.60;;;13.60;1.00;;;;;;5045406;28;20446;-77
2021/06/01 01:04:07;;;;;;;13.37;9.87;;;13.60;1.00;;;;;;5042142;28;20449;-76
2021/06/01 01:06:43;;;;;;;11.20;9.60;;;13.50;1.00;;;;;;5044644;28;20517;-77
2021/06/01 01:09:13;;;;;;;13.57;9.57;;;13.40;1.00;;;;;;5041385;28;20981;-77
2021/06/01 01:11:48;;;;;;;11.27;10.07;;;13.40;1.00;;;;;;5043253;28;20463;-76
2021/06/01 01:14:19;;;;;;;10.80;9.30;;;13.30;1.00;;;;;;5043907;28;20527;-76
2021/06/01 01:16:51;;;;;;;11.53;10.27;;;13.30;1.00;;;;;;5041018;28;20525;-75
2021/06/01 01:19:33;;;;;;;11.33;9.17;;;13.30;1.00;;;;;;5046677;28;20490;-77
2021/06/01 01:21:59;;;;;;;10.60;9.40;;;13.20;1.00;;;;;;5044155;28;21584;-76
2021/06/01 01:24:43;;;;;;;11.33;9.47;;;13.20;1.00;;;;;;5040971;28;20458;-77
2021/06/01 01:27:16;;;;;;;12.00;9.40;;;13.20;1.00;;;;;;5046012;28;20436;-75
2021/06/01 01:29:46;;;;;;;13.00;10.60;;;13.20;1.00;;;;;;5041424;28;20455;-76
2021/06/01 01:32:24;;;;;;;10.57;9.30;;;13.20;1.00;;;;;;5045957;28;20613;-76
2021/06/01 01:34:52;;;;;;;11.57;10.10;;;13.20;1.00;;;;;;5041322;28;20451;-76
2021/06/01 01:37:20;;;;;;;13.27;9.60;;;13.20;1.00;;;;;;5049945;28;20803;-76
2021/06/01 01:39:50;;;;;;;12.23;10.10;;;13.20;1.00;;;;;;5044620;28;20441;-76
2021/06/01 01:42:18;;;;;;;10.20;9.20;;;13.20;1.00;;;;;;5045180;28;21590;-76
2021/06/01 01:44:49;;;;;;;11.43;10.37;;;13.20;1.00;;;;;;5042452;28;20558;-77
2021/06/01 01:50:00;;;;;;;14.23;10.60;;;13.30;1.00;;;;;;5040022;28;20476;-77
2021/06/01 01:52:26;;;;;;;11.10;10.00;;;13.30;1.00;;;;;;5045163;28;20466;-76
2021/06/01 01:54:54;;;;;;;12.63;9.83;;;13.30;1.00;;;;;;5043473;28;20536;-76
2021/06/01 01:57:21;;;;;;;11.60;9.73;;;13.20;1.00;;;;;;5041455;28;20460;-76
2021/06/01 01:59:48;;;;;;;12.80;11.00;;;13.20;1.00;;;;;;5048469;28;21108;-76
2021/06/01 02:02:14;;;;;;;12.10;10.27;;;13.20;1.00;;;;;;5043993;28;20491;-76
2021/06/01 02:04:43;;;;;;;11.27;10.17;;;13.10;1.00;;;;;;5046105;28;20452;-76
2021/06/01 02:07:11;;;;;;;11.70;10.50;;;13.20;1.00;;;;;;5042553;28;20441;-76
2021/06/01 02:09:38;;;;;;;14.87;11.00;;;13.10;1.00;;;;;;5041172;28;20506;-76
2021/06/01 02:12:05;;;;;;;11.60;10.27;;;13.10;1.00;;;;;;5041069;28;20448;-76
2021/06/01 02:14:31;;;;;;;12.60;10.90;;;13.10;1.00;;;;;;5039670;28;21016;-76
2021/06/01 02:16:58;;;;;;;12.00;10.20;;;13.10;1.00;;;;;;5039699;28;20862;-76
2021/06/01 02:19:26;;;;;;;11.57;10.03;;;13.00;1.00;;;;;;5042749;28;20494;-76
2021/06/01 02:22:04;;;;;;;12.77;10.93;;;13.00;1.00;;;;;;5042019;28;20457;-76
2021/06/01 02:24:34;;;;;;;11.20;10.10;;;12.90;1.00;;;;;;5041126;28;20737;-76
2021/06/01 02:27:07;;;;;;;11.67;10.57;;;12.90;1.00;;;;;;5042451;28;20592;-76
2021/06/01 02:29:40;;;;;;;13.73;10.90;;;12.80;1.00;;;;;;5062802;28;20467;-76
2021/06/01 02:32:07;;;;;;;11.30;10.10;;;12.80;1.00;;;;;;5057244;28;20494;-76
2021/06/01 02:34:38;;;;;;;11.87;10.60;;;12.80;1.00;;;;;;5043942;28;22991;-76
2021/06/01 02:37:04;;;;;;;11.53;10.47;;;12.80;1.00;;;;;;5042946;28;20465;-76
2021/06/01 02:39:33;;;;;;;15.30;11.07;;;12.80;1.00;;;;;;5040822;28;21647;-77
2021/06/01 02:42:00;;;;;;;12.93;11.27;;;12.80;1.00;;;;;;5046166;28;20911;-77
2021/06/01 02:44:26;;;;;;;18.53;13.23;;;12.80;1.00;;;;;;5044330;28;20456;-76
2021/06/01 02:46:53;;;;;;;16.33;11.27;;;12.90;1.00;;;;;;5037696;28;20433;-76
2021/06/01 02:49:20;;;;;;;13.30;11.37;;;13.00;1.00;;;;;;5046240;28;20449;-77
2021/06/01 02:51:47;;;;;;;16.67;12.47;;;13.10;1.00;;;;;;5043223;28;20447;-77
2021/06/01 02:54:13;;;;;;;13.87;11.10;;;13.10;1.00;;;;;;5038808;28;20461;-76
2021/06/01 02:56:41;;;;;;;16.13;12.40;;;13.10;1.00;;;;;;5040090;28;20432;-77
2021/06/01 02:59:08;;;;;;;17.40;12.30;;;13.10;1.00;;;;;;5042441;28;20898;-76
2021/06/01 03:01:34;;;;;;;12.40;11.20;;;13.00;1.00;;;;;;5041783;28;20464;-76
2021/06/01 03:04:01;;;;;;;16.60;12.00;;;13.00;1.00;;;;;;5043615;28;20417;-76
2021/06/01 03:06:29;;;;;;;11.90;10.70;;;13.10;1.00;;;;;;5046612;28;20837;-77
2021/06/01 03:08:55;;;;;;;16.80;13.00;;;13.00;1.00;;;;;;5043990;28;20478;-76
2021/06/01 03:11:22;;;;;;;20.03;12.00;;;13.00;1.00;;;;;;5036934;28;20463;-77
2021/06/01 03:13:51;;;;;;;13.10;11.23;;;12.90;1.00;;;;;;5036819;28;20877;-77
2021/06/01 03:16:19;;;;;;;13.43;11.63;;;12.90;1.00;;;;;;5037972;28;21144;-77
2021/06/01 03:18:45;;;;;;;16.43;12.17;;;12.90;1.00;;;;;;5047777;28;21247;-77
2021/06/01 03:21:13;;;;;;;20.63;12.70;;;12.90;1.00;;;;;;5043179;28;20499;-76
2021/06/01 03:23:39;;;;;;;17.60;12.00;;;12.90;1.00;;;;;;5042883;28;20480;-77
2021/06/01 03:26:05;;;;;;;14.87;11.13;;;12.90;1.00;;;;;;5040276;28;20534;-76
2021/06/01 03:28:32;;;;;;;23.03;15.80;;;13.00;1.00;;;;;;5038496;28;20483;-76
2021/06/01 03:31:00;;;;;;;17.37;13.10;;;13.00;1.00;;;;;;5039107;28;20468;-77
2021/06/01 03:33:28;;;;;;;17.13;13.40;;;13.00;1.00;;;;;;5041616;28;20488;-76
2021/06/01 03:35:54;;;;;;;16.20;12.40;;;13.00;1.00;;;;;;5041021;28;20456;-77
2021/06/01 03:38:20;;;;;;;12.80;11.50;;;13.00;1.00;;;;;;5040003;28;20524;-76
2021/06/01 03:40:47;;;;;;;18.30;12.37;;;13.00;1.00;;;;;;5041325;28;20543;-76
2021/06/01 03:43:13;;;;;;;15.20;11.90;;;13.00;1.00;;;;;;5046724;28;21612;-77
2021/06/01 03:45:39;;;;;;;18.10;12.57;;;12.90;1.00;;;;;;5047044;28;20431;-76
2021/06/01 03:48:07;;;;;;;15.00;12.00;;;12.90;1.00;;;;;;5042236;28;21150;-77
2021/06/01 03:50:34;;;;;;;22.67;13.43;;;12.90;1.00;;;;;;5041464;28;21453;-77
2021/06/01 03:53:00;;;;;;;16.97;12.80;;;12.90;1.00;;;;;;5042349;28;20453;-76
2021/06/01 03:55:26;;;;;;;21.50;12.83;;;13.00;1.00;;;;;;5042639;28;20443;-77
2021/06/01 03:57:53;;;;;;;13.00;11.00;;;13.00;1.00;;;;;;5037622;28;21158;-76
2021/06/01 04:00:25;;;;;;;17.53;12.13;;;13.00;1.00;;;;;;5038962;28;20467;-76
2021/06/01 04:02:52;;;;;;;19.93;11.97;;;13.00;1.00;;;;;;5047555;28;20447;-76
2021/06/01 04:05:19;;;;;;;22.83;13.70;;;13.10;1.00;;;;;;5044197;28;21021;-77
2021/06/01 04:07:47;;;;;;;14.83;12.97;;;13.10;1.00;;;;;;5044031;28;20437;-76
2021/06/01 04:10:14;;;;;;;15.13;12.37;;;13.10;1.00;;;;;;5046802;28;20497;-76
2021/06/01 04:12:40;;;;;;;26.07;13.50;;;13.20;1.00;;;;;;5042779;28;22023;-76
2021/06/01 04:15:07;;;;;;;18.80;14.53;;;13.30;1.00;;;;;;5051168;28;20469;-76
2021/06/01 04:17:34;;;;;;;16.93;12.63;;;13.40;1.00;;;;;;5056245;28;21146;-76
2021/06/01 04:20:01;;;;;;;18.27;13.40;;;13.50;1.00;;;;;;5058214;28;21119;-77
2021/06/01 04:22:29;;;;;;;22.60;14.17;;;13.50;1.00;;;;;;5054878;28;20409;-77
2021/06/01 04:24:55;;;;;;;19.33;15.43;;;13.60;1.00;;;;;;5055959;28;20432;-78
2021/06/01 04:27:21;;;;;;;18.57;15.07;;;13.70;1.00;;;;;;5050144;28;20534;-77
2021/06/01 04:29:47;;;;;;;16.70;13.53;;;13.80;1.00;;;;;;5052553;28;20463;-76
2021/06/01 04:32:13;;;;;;;14.20;12.70;;;14.00;1.00;;;;;;5056797;28;20505;-77
2021/06/01 04:34:39;;;;;;;21.70;14.23;;;14.10;1.00;;;;;;5054461;28;20427;-76
2021/06/01 04:37:06;;;;;;;14.37;12.87;;;14.20;1.00;;;;;;5054240;28;20459;-75
2021/06/01 04:39:33;;;;;;;15.47;13.87;;;14.30;1.00;;;;;;5051136;28;20449;-75
2021/06/01 04:41:59;;;;;;;16.27;13.67;;;14.40;1.00;;;;;;5055557;28;20499;-77
2021/06/01 04:44:26;;;;;;;15.70;12.97;;;14.50;1.00;;;;;;5051248;28;20455;-77
2021/06/01 04:46:52;;;;;;;17.27;13.70;;;14.70;1.00;;;;;;5055055;28;20440;-76
2021/06/01 04:49:18;;;;;;;15.37;13.00;;;14.80;1.00;;;;;;5054987;28;21022;-77
2021/06/01 04:51:44;;;;;;;16.27;12.27;;;14.90;1.00;;;;;;5056818;28;20470;-76
2021/06/01 04:54:11;;;;;;;17.33;14.30;;;15.00;1.00;;;;;;5049759;28;20539;-76
2021/06/01 04:56:38;;;;;;;16.37;13.30;;;15.20;1.00;;;;;;5047052;28;20463;-77
2021/06/01 04:59:05;;;;;;;16.67;12.53;;;15.40;1.00;;;;;;5050405;28;20518;-77
2021/06/01 05:01:31;;;;;;;16.70;13.80;;;15.60;1.00;;;;;;5049575;28;20460;-76
2021/06/01 05:03:57;;;;;;;14.27;12.57;;;15.70;1.00;;;;;;5051176;28;20463;-77
2021/06/01 05:06:23;;;;;;;12.43;11.13;;;15.80;1.00;;;;;;5052940;28;20453;-77
2021/06/01 05:08:49;;;;;;;12.37;11.10;;;15.90;1.00;;;;;;5048714;28;20955;-78
2021/06/01 05:11:15;;;;;;;12.37;11.07;;;16.10;1.00;;;;;;5050157;28;20457;-77
2021/06/01 05:13:43;;;;;;;15.97;12.27;;;16.20;1.00;;;;;;5052877;28;20527;-77
2021/06/01 05:16:10;;;;;;;12.77;11.20;;;16.30;1.00;;;;;;5052595;28;21181;-77
2021/06/01 05:18:36;;;;;;;18.30;13.10;;;16.40;1.00;;;;;;5046252;28;20553;-77
2021/06/01 05:21:02;;;;;;;13.20;11.67;;;16.50;1.00;;;;;;5051531;28;20556;-78
2021/06/01 05:23:28;;;;;;;13.57;12.13;;;16.50;1.00;;;;;;5052725;28;20441;-77
2021/06/01 05:25:55;;;;;;;13.93;11.93;;;16.60;1.00;;;;;;5060595;28;20416;-77
2021/06/01 05:28:21;;;;;;;13.10;11.03;;;16.70;1.00;;;;;;5056215;28;20412;-78
2021/06/01 05:30:57;;;;;;;13.07;11.67;;;16.70;1.00;;;;;;5058831;28;20535;-77
2021/06/01 05:33:25;;;;;;;14.70;12.10;;;16.70;1.00;;;;;;5063983;28;20481;-78
2021/06/01 05:35:53;;;;;;;15.77;12.50;;;16.80;1.00;;;;;;5060964;28;20435;-78
2021/06/01 05:38:20;;;;;;;16.57;12.60;;;16.90;1.00;;;;;;5053283;28;20449;-78
2021/06/01 05:40:46;;;;;;;14.00;11.20;;;17.00;1.00;;;;;;5058437;28;21205;-77
2021/06/01 05:43:12;;;;;;;12.60;11.30;;;17.10;1.00;;;;;;5059442;28;20467;-76
2021/06/01 05:45:39;;;;;;;12.53;11.23;;;17.10;1.00;;;;;;5053239;28;20461;-78
2021/06/01 05:48:08;;;;;;;15.40;13.03;;;17.20;1.00;;;;;;5056100;28;20592;-78
2021/06/01 05:50:34;;;;;;;18.10;11.60;;;17.20;1.00;;;;;;5062433;28;20466;-77
2021/06/01 05:53:02;;;;;;;16.27;12.07;;;17.30;1.00;;;;;;5057358;28;20544;-76
2021/06/01 05:55:28;;;;;;;13.13;11.73;;;17.40;1.00;;;;;;5053627;28;21783;-77
2021/06/01 05:57:55;;;;;;;16.63;12.67;;;17.50;1.00;;;;;;5056265;28;20466;-78
2021/06/01 06:00:22;;;;;;;16.13;11.80;;;17.50;1.00;;;;;;5053875;28;20465;-78
2021/06/01 06:02:49;;;;;;;14.50;11.40;;;17.70;1.00;;;;;;5055444;28;21967;-78
2021/06/01 06:05:16;;;;;;;17.03;12.23;;;17.80;1.00;;;;;;5058672;28;20447;-78
2021/06/01 06:07:43;;;;;;;17.17;12.70;;;17.80;1.00;;;;;;5058765;28;21298;-77
2021/06/01 06:10:11;;;;;;;16.27;11.50;;;17.90;1.00;;;;;;5052694;28;20608;-77
2021/06/01 06:12:37;;;;;;;13.50;12.10;;;17.90;1.00;;;;;;5058419;28;20495;-76
2021/06/01 06:15:05;;;;;;;15.33;13.10;;;17.90;1.00;;;;;;5056870;28;20474;-77
2021/06/01 06:17:43;;;;;;;13.47;12.07;;;18.00;1.00;;;;;;5057710;28;21413;-78
2021/06/01 06:20:11;;;;;;;17.17;11.47;;;18.00;1.00;;;;;;5054671;28;20489;-77
2021/06/01 06:22:39;;;;;;;16.27;13.07;;;18.00;1.00;;;;;;5054904;28;20439;-77
2021/06/01 06:25:06;;;;;;;19.70;13.10;;;18.10;1.00;;;;;;5056310;28;20490;-78
2021/06/01 06:27:32;;;;;;;17.50;11.67;;;18.20;1.00;;;;;;5059221;28;20428;-78
2021/06/01 06:29:58;;;;;;;13.17;10.97;;;18.20;1.00;;;;;;5056609;28;20454;-77
2021/06/01 06:32:25;;;;;;;14.90;11.00;;;18.40;1.00;;;;;;5059157;28;20449;-78
2021/06/01 06:34:52;;;;;;;14.07;12.33;;;18.50;1.00;;;;;;5054215;28;21374;-78
2021/06/01 06:37:19;;;;;;;14.27;11.80;;;18.70;1.00;;;;;;5056496;28;20469;-78
2021/06/01 06:39:48;;;;;;;19.27;11.73;;;18.90;1.00;;;;;;5057580;28;20439;-79
2021/06/01 06:42:17;;;;;;;16.60;13.87;;;19.10;1.00;;;;;;5062805;28;20489;-78
2021/06/01 06:44:47;;;;;;;16.13;12.20;;;19.30;1.00;;;;;;5058961;28;20494;-78
2021/06/01 06:47:39;;;;;;;16.47;13.10;;;19.40;1.00;;;;;;5057738;28;20468;-77
2021/06/01 06:50:06;;;;;;;13.20;10.60;;;19.50;1.00;;;;;;5057926;28;20408;-77
2021/06/01 06:52:32;;;;;;;17.00;11.83;;;19.80;1.00;;;;;;5057408;28;21468;-77
2021/06/01 06:55:00;;;;;;;15.07;11.90;;;19.90;1.00;;;;;;5072246;28;20460;-76
2021/06/01 06:57:26;;;;;;;11.90;10.63;;;19.90;1.00;;;;;;5066258;28;20496;-79
2021/06/01 06:59:52;;;;;;;14.57;11.80;;;20.00;1.00;;;;;;5056855;28;20468;-77
2021/06/01 07:02:19;;;;;;;11.63;9.90;;;20.10;1.00;;;;;;5061777;28;20569;-77
2021/06/01 07:04:46;;;;;;;14.23;11.10;;;20.30;1.00;;;;;;5064760;28;20978;-79
2021/06/01 07:07:12;;;;;;;14.70;11.20;;;20.40;1.00;;;;;;5077690;28;20420;-78
2021/06/01 07:09:39;;;;;;;12.83;10.50;;;20.60;1.00;;;;;;5075639;28;20416;-79
2021/06/01 07:12:09;;;;;;;20.60;12.40;;;20.80;1.00;;;;;;5062195;28;20502;-78
2021/06/01 07:14:44;;;;;;;17.80;11.87;;;20.90;1.00;;;;;;5056422;28;21123;-79
2021/06/01 07:17:10;;;;;;;16.37;11.80;;;21.00;1.00;;;;;;5060826;28;21740;-80
2021/06/01 07:19:37;;;;;;;18.43;12.97;;;21.10;1.00;;;;;;5059956;28;21067;-81
2021/06/01 07:22:03;;;;;;;11.00;9.90;;;21.10;1.00;;;;;;5059328;28;20418;-81
2021/06/01 07:24:29;;;;;;;13.27;9.30;;;21.30;1.00;;;;;;5062980;28;20452;-81
2021/06/01 07:26:56;;;;;;;10.93;9.87;;;21.50;1.00;;;;;;5058978;28;20477;-81
2021/06/01 07:29:25;;;;;;;13.23;9.87;;;21.70;1.00;;;;;;5060756;28;21732;-82
2021/06/01 07:31:52;;;;;;;11.27;9.40;;;21.80;1.00;;;;;;5058934;28;20567;-80
2021/06/01 07:34:18;;;;;;;11.77;9.30;;;21.90;1.00;;;;;;5063159;28;20436;-82
2021/06/01 07:36:44;;;;;;;9.53;7.77;;;22.00;1.00;;;;;;5075633;28;20566;-77
2021/06/01 07:39:10;;;;;;;11.33;7.63;;;22.10;1.00;;;;;;5059051;28;20454;-78
2021/06/01 07:41:37;;;;;;;9.27;7.70;;;22.10;1.00;;;;;;5064782;28;20976;-78
2021/06/01 07:44:05;;;;;;;11.37;8.53;;;22.10;1.00;;;;;;5058366;28;20539;-79
2021/06/01 07:46:33;;;;;;;14.17;9.37;;;22.00;1.00;;;;;;5059449;28;20458;-79
2021/06/01 07:49:02;;;;;;;7.60;7.00;;;22.00;1.00;;;;;;5056952;28;20445;-79
2021/06/01 07:51:28;;;;;;;9.50;8.50;;;22.00;1.00;;;;;;5059352;28;20581;-79
2021/06/01 07:53:57;;;;;;;13.97;7.40;;;22.10;1.00;;;;;;5060779;28;21600;-78
2021/06/01 07:56:24;;;;;;;8.70;7.30;;;22.20;1.00;;;;;;5062735;28;20967;-78
2021/06/01 07:58:50;;;;;;;9.80;8.60;;;22.20;1.00;;;;;;5055414;28;20425;-79
2021/06/01 08:01:18;;;;;;;7.67;6.87;;;22.20;1.00;;;;;;5053821;28;21804;-78
2021/06/01 08:03:45;;;;;;;7.10;6.50;;;22.30;1.00;;;;;;5058350;28;20535;-79
2021/06/01 08:06:12;;;;;;;7.90;7.10;;;22.30;1.00;;;;;;5058238;28;21433;-78
2021/06/01 08:08:38;;;;;;;14.53;8.00;;;22.30;1.00;;;;;;5056467;28;20465;-79
2021/06/01 08:11:05;;;;;;;7.20;6.53;;;22.40;1.00;;;;;;5056280;28;20442;-79
2021/06/01 08:13:32;;;;;;;8.10;6.47;;;22.50;1.00;;;;;;5057932;28;20453;-78
2021/06/01 08:16:01;;;;;;;6.63;6.00;;;22.50;1.00;;;;;;5052882;28;20472;-78
2021/06/01 08:18:30;;;;;;;6.53;5.93;;;22.60;1.00;;;;;;5055094;28;20414;-78
2021/06/01 08:21:03;;;;;;;6.40;5.80;;;22.70;1.00;;;;;;5052096;28;21182;-79
2021/06/01 08:23:30;;;;;;;6.43;5.80;;;22.70;1.00;;;;;;5050797;28;20446;-79
2021/06/01 08:25:57;;;;;;;8.00;5.43;;;22.80;1.00;;;;;;5050113;28;20512;-78
2021/06/01 08:28:23;;;;;;;8.60;6.27;;;22.80;1.00;;;;;;5052192;28;20679;-79
2021/06/01 08:30:51;;;;;;;6.33;5.73;;;23.00;1.00;;;;;;5052804;28;20521;-77
2021/06/01 08:33:17;;;;;;;6.33;5.73;;;22.90;1.00;;;;;;5047435;28;20452;-78
2021/06/01 08:35:43;;;;;;;5.60;4.80;;;23.00;1.00;;;;;;5051350;28;20518;-79
2021/06/01 08:38:12;;;;;;;6.67;6.07;;;23.30;1.00;;;;;;5047189;28;20502;-79
2021/06/01 08:40:38;;;;;;;7.50;6.00;;;23.50;1.00;;;;;;5052264;28;24075;-78
2021/06/01 08:43:16;;;;;;;7.03;6.40;;;23.60;1.00;;;;;;5050934;28;20406;-79
2021/06/01 08:45:48;;;;;;;9.00;5.43;;;23.90;1.00;;;;;;5049898;28;20542;-79
2021/06/01 08:48:16;;;;;;;6.07;5.33;;;24.00;1.00;;;;;;5049520;28;20422;-79
2021/06/01 08:50:43;;;;;;;6.83;5.57;;;24.30;1.00;;;;;;5052692;28;21141;-79
2021/06/01 08:53:10;;;;;;;5.87;4.63;;;24.50;1.00;;;;;;5057383;28;20441;-79
2021/06/01 08:55:37;;;;;;;6.40;5.30;;;24.70;1.00;;;;;;5053302;28;20457;-78
2021/06/01 08:58:03;;;;;;;6.07;4.87;;;24.90;1.00;;;;;;5048887;28;20451;-78
2021/06/01 09:00:29;;;;;;;7.50;6.70;;;25.00;1.00;;;;;;5051977;28;20516;-79
2021/06/01 09:03:10;;;;;;;11.80;6.17;;;25.00;1.00;;;;;;5053602;28;20446;-79
2021/06/01 09:05:38;;;;;;;8.20;5.50;;;25.00;1.00;;;;;;5059663;28;20473;-79
2021/06/01 09:08:08;;;;;;;6.03;5.20;;;24.90;1.00;;;;;;5067546;28;20452;-79
2021/06/01 09:10:48;;;;;;;5.90;5.07;;;24.70;1.00;;;;;;5089912;28;20417;-79
2021/06/01 09:13:35;;;;;;;11.70;6.20;;;24.70;1.00;;;;;;5065834;28;20422;-78
2021/06/01 09:21:39;;;;;;;10.03;7.43;;;25.30;1.00;;;;;;5055448;28;20924;-77
2021/06/01 09:24:06;;;;;;;16.17;8.50;;;25.40;1.00;;;;;;5059699;28;20524;-77
2021/06/01 09:27:05;;;;;;;5.90;5.40;;;25.60;1.00;;;;;;5056660;28;20456;-78
2021/06/01 09:29:34;;;;;;;9.33;6.10;;;25.80;1.00;;;;;;5042475;28;20471;-78
2021/06/01 09:32:05;;;;;;;7.77;5.97;;;26.20;1.00;;;;;;5049511;28;20412;-79
2021/06/01 09:34:38;;;;;;;6.07;4.70;;;26.30;1.00;;;;;;5051502;28;20437;-79
2021/06/01 09:37:20;;;;;;;5.93;5.10;;;26.50;1.00;;;;;;5057064;28;20477;-80
2021/06/01 09:40:01;;;;;;;5.37;4.97;;;27.10;1.00;;;;;;5050168;28;20435;-79
2021/06/01 09:42:30;;;;;;;6.20;5.60;;;27.20;1.00;;;;;;5060901;28;20441;-78
2021/06/01 09:45:05;;;;;;;6.40;5.20;;;27.30;1.00;;;;;;5052665;28;20408;-78
2021/06/01 09:47:54;;;;;;;6.00;5.40;;;27.30;1.00;;;;;;5051671;28;20541;-79
2021/06/01 09:50:28;;;;;;;6.17;5.13;;;27.70;1.00;;;;;;5055004;28;20460;-77
2021/06/01 09:52:57;;;;;;;5.83;5.17;;;27.90;1.00;;;;;;5057226;28;20486;-79
2021/06/01 09:55:27;;;;;;;7.07;6.30;;;28.60;1.00;;;;;;5061449;28;20441;-79
2021/06/01 09:57:57;;;;;;;5.00;4.60;;;29.70;1.00;;;;;;5063637;28;20460;-78
2021/06/01 10:00:25;;;;;;;5.20;4.70;;;31.30;1.00;;;;;;5055252;28;20453;-78
2021/06/01 10:02:55;;;;;;;5.53;4.60;;;32.20;1.00;;;;;;5055623;28;20485;-78
2021/06/01 10:05:23;;;;;;;4.80;4.50;;;32.50;1.00;;;;;;5054439;28;20450;-78
2021/06/01 10:07:51;;;;;;;5.10;4.70;;;33.30;1.00;;;;;;5050836;28;20492;-78
2021/06/01 10:10:21;;;;;;;5.43;4.47;;;33.80;1.00;;;;;;5056498;28;21177;-79
2021/06/01 10:12:50;;;;;;;5.70;4.67;;;33.80;1.00;;;;;;5053385;28;20423;-79
2021/06/01 10:15:20;;;;;;;4.13;3.73;;;33.80;1.00;;;;;;5050936;28;21244;-78
2021/06/01 10:17:46;;;;;;;3.23;3.00;;;34.60;1.00;;;;;;5051051;28;20992;-78
2021/06/01 10:20:13;;;;;;;3.93;3.63;;;35.10;1.00;;;;;;5053943;28;20463;-79
2021/06/01 10:22:40;;;;;;;5.23;4.10;;;35.70;1.00;;;;;;5060344;28;20488;-78
2021/06/01 10:25:08;;;;;;;4.43;4.13;;;36.10;1.00;;;;;;5055974;28;20483;-79
2021/06/01 10:27:34;;;;;;;8.20;4.33;;;36.40;1.00;;;;;;5059952;28;20452;-77
2021/06/01 10:30:01;;;;;;;3.60;3.30;;;36.30;1.00;;;;;;5053783;28;20424;-78
2021/06/01 10:32:30;;;;;;;4.10;3.57;;;36.60;1.00;;;;;;5061006;28;20467;-78
2021/06/01 10:34:58;;;;;;;4.13;3.00;;;36.40;1.00;;;;;;5060434;28;20928;-77
2021/06/01 10:43:36;;;;;;;4.03;3.73;;;33.30;1.00;;;;;;5058361;28;20411;-77
2021/06/01 10:52:08;;;;;;;3.77;3.47;;;30.80;1.00;;;;;;5059923;28;20437;-77
2021/06/01 10:54:58;;;;;;;3.93;3.63;;;30.40;1.00;;;;;;5059892;28;21256;-78
2021/06/01 10:57:44;;;;;;;4.80;4.40;;;30.10;1.00;;;;;;5060889;28;20427;-77
2021/06/01 11:03:06;;;;;;;5.10;4.10;;;29.70;1.00;;;;;;5056539;28;20443;-77
2021/06/01 11:06:08;;;;;;;5.63;5.13;;;29.60;1.00;;;;;;5054653;28;20432;-78
2021/06/01 11:08:43;;;;;;;4.20;3.80;;;29.70;1.00;;;;;;5060816;28;20901;-78
2021/06/01 11:11:27;;;;;;;6.13;4.70;;;29.70;1.00;;;;;;5055519;28;20428;-80
2021/06/01 11:13:55;;;;;;;5.70;5.10;;;29.90;1.00;;;;;;5056883;28;20565;-78
2021/06/01 11:16:22;;;;;;;4.80;4.40;;;29.50;1.00;;;;;;5055716;28;20423;-78
2021/06/01 11:18:56;;;;;;;6.47;5.83;;;29.50;1.00;;;;;;5059021;28;21216;-78
2021/06/01 11:21:35;;;;;;;5.70;5.20;;;29.50;1.00;;;;;;5065033;28;20475;-79
2021/06/01 11:33:16;;;;;;;3.30;3.07;;;30.50;1.00;;;;;;5055672;28;20556;-78
2021/06/01 11:35:45;;;;;;;6.90;5.10;;;30.90;1.00;;;;;;5051399;28;20425;-79
2021/06/01 11:38:18;;;;;;;3.73;3.43;;;31.30;1.00;;;;;;5052680;28;20463;-79
2021/06/01 11:41:02;;;;;;;3.60;3.10;;;31.30;1.00;;;;;;5052454;28;20438;-77
2021/06/01 11:43:28;;;;;;;2.90;2.40;;;31.70;1.00;;;;;;5058885;28;20550;-77
2021/06/01 11:46:03;;;;;;;3.43;3.20;;;31.80;1.00;;;;;;5051559;28;20498;-78
2021/06/01 11:51:21;;;;;;;3.77;2.90;;;31.80;1.00;;;;;;5050170;28;20546;-78
2021/06/01 11:53:49;;;;;;;5.63;3.70;;;31.60;1.00;;;;;;5051744;28;20454;-79
2021/06/01 11:56:31;;;;;;;4.43;3.07;;;31.40;1.00;;;;;;5053408;28;20938;-80
2021/06/01 12:02:10;;;;;;;3.70;3.30;;;31.70;1.00;;;;;;5067394;28;20866;-78
2021/06/01 12:05:01;;;;;;;4.13;3.10;;;32.20;1.00;;;;;;5050215;28;20623;-77
2021/06/01 12:18:54;;;;;;;4.90;3.50;;;36.70;1.00;;;;;;5054844;28;20493;-78
2021/06/01 12:21:24;;;;;;;7.00;3.47;;;37.10;1.00;;;;;;5053131;28;20452;-79
2021/06/01 12:23:58;;;;;;;3.43;3.10;;;38.10;1.00;;;;;;5050366;28;20559;-79
2021/06/01 12:26:30;;;;;;;4.03;3.33;;;38.60;1.00;;;;;;5047830;28;20463;-79
2021/06/01 12:31:51;;;;;;;3.77;3.37;;;39.20;1.00;;;;;;5054773;28;20463;-79
2021/06/01 12:34:21;;;;;;;3.57;3.27;;;39.30;1.00;;;;;;5051519;28;20439;-78
2021/06/01 12:42:45;;;;;;;3.80;2.93;;;37.90;1.00;;;;;;5049308;28;20449;-78
2021/06/01 12:45:44;;;;;;;2.47;2.27;;;38.30;1.00;;;;;;5044334;28;20439;-77
2021/06/01 13:08:13;;;;;;;3.37;3.07;;;39.90;1.00;;;;;;5062229;28;20516;-78
2021/06/01 13:13:57;;;;;;;2.70;2.50;;;40.30;1.00;;;;;;5061709;28;20480;-79
2021/06/01 13:19:27;;;;;;;2.20;1.67;;;39.90;1.00;;;;;;5062869;28;20395;-79
2021/06/01 13:21:58;;;;;;;4.70;2.90;;;38.70;1.00;;;;;;5066087;28;21040;-78
2021/06/01 13:30:37;;;;;;;7.17;3.33;;;36.30;1.00;;;;;;5021236;28;20456;-77
2021/06/01 13:38:45;;;;;;;3.17;2.40;;;37.30;1.00;;;;;;5062199;28;20424;-78
2021/06/01 13:46:45;;;;;;;7.00;3.23;;;39.20;1.00;;;;;;5054466;28;21286;-77
2021/06/01 13:49:16;;;;;;;5.73;3.20;;;39.70;1.00;;;;;;5054134;28;20527;-78
2021/06/01 13:51:59;;;;;;;3.23;2.40;;;40.30;1.00;;;;;;5056375;28;21383;-77
2021/06/01 13:57:15;;;;;;;3.67;2.00;;;39.80;1.00;;;;;;5055662;28;20451;-77
2021/06/01 13:59:50;;;;;;;3.37;2.90;;;39.50;1.00;;;;;;5061987;28;20447;-78
2021/06/01 14:11:27;;;;;;;1.67;1.57;;;39.10;1.00;;;;;;5055992;28;21262;-78
2021/06/01 14:19:57;;;;;;;2.37;1.53;;;38.60;1.00;;;;;;5050439;28;21203;-77
2021/06/01 14:31:13;;;;;;;2.17;1.83;;;34.80;1.00;;;;;;5060954;28;20488;-78
2021/06/01 14:36:35;;;;;;;11.80;10.87;;;33.20;1.00;;;;;;5053545;28;20413;-76
2021/06/01 15:31:58;;;;;;;3.83;3.43;;;35.00;1.00;;;;;;5051135;28;20464;-78
2021/06/01 15:48:50;;;;;;;5.90;3.40;;;30.00;1.00;;;;;;5012206;28;20894;-77
2021/06/01 15:54:27;;;;;;;8.97;4.63;;;29.10;1.00;;;;;;5045540;28;20409;-77
2021/06/01 16:11:30;;;;;;;8.53;7.70;;;26.00;1.00;;;;;;4995457;28;20439;-78
2021/06/01 16:14:03;;;;;;;7.87;5.40;;;25.40;1.00;;;;;;4997050;28;20422;-79
2021/06/01 16:22:18;;;;;;;6.57;5.37;;;24.40;1.00;;;;;;5067072;28;20617;-79
2021/06/01 16:30:22;;;;;;;6.67;4.87;;;23.80;1.00;;;;;;5058852;28;20448;-79
2021/06/01 16:33:22;;;;;;;9.30;6.50;;;23.70;1.00;;;;;;5059021;28;20416;-79
2021/06/01 16:44:17;;;;;;;9.50;5.13;;;23.60;1.00;;;;;;5051374;28;20590;-78
2021/06/01 17:03:38;;;;;;;9.27;8.47;;;23.30;1.00;;;;;;5055819;28;21420;-81
2021/06/01 17:06:10;;;;;;;5.57;5.00;;;23.20;1.00;;;;;;5058151;28;20456;-79
2021/06/01 17:08:46;;;;;;;8.67;5.80;;;23.20;1.00;;;;;;5060423;28;20457;-79